sensor_id;sensor_type;location;lat;lon;timestamp;temperature;humidity
33645;DHT22;19986;48.190;16.366;2022-12-20T00:01:05;2.20;99.90
33645;DHT22;19986;48.190;16.366;2022-12-20T00:03:30;2.20;99.90
33645;DHT22;19986;48.190;16.366;2022-12-20T00:05:56;2.20;99.90
33645;DHT22;19986;48.190;16.366;2022-12-20T00:08:22;2.10;99.90
33645;DHT22;19986;48.190;16.366;2022-12-20T00:10:48;2.10;99.90
33645;DHT22;19986;48.190;16.366;2022-12-20T00:13:14;2.00;99.90
33645;DHT22;19986;48.190;16.366;2022-12-20T00:15:39;2.00;99.90
33645;DHT22;19986;48.190;16.366;2022-12-20T00:18:05;2.00;99.90
33645;DHT22;19986;48.190;16.366;2022-12-20T00:20:31;2.00;99.90
33645;DHT22;19986;48.190;16.366;2022-12-20T00:22:57;2.00;99.90
33645;DHT22;19986;48.190;16.366;2022-12-20T00:25:23;1.90;99.90
33645;DHT22;19986;48.190;16.366;2022-12-20T00:27:49;1.90;99.90
33645;DHT22;19986;48.190;16.366;2022-12-20T00:30:16;1.80;99.90
33645;DHT22;19986;48.190;16.366;2022-12-20T00:32:42;1.80;99.90
33645;DHT22;19986;48.190;16.366;2022-12-20T00:35:09;2.00;99.90
33645;DHT22;19986;48.190;16.366;2022-12-20T00:37:35;2.00;99.90
33645;DHT22;19986;48.190;16.366;2022-12-20T00:40:02;2.00;99.90
33645;DHT22;19986;48.190;16.366;2022-12-20T00:42:28;2.00;99.90
33645;DHT22;19986;48.190;16.366;2022-12-20T00:44:54;2.00;99.90
33645;DHT22;19986;48.190;16.366;2022-12-20T00:47:20;2.00;99.90
33645;DHT22;19986;48.190;16.366;2022-12-20T00:52:31;2.20;99.90
33645;DHT22;19986;48.190;16.366;2022-12-20T00:54:57;2.20;99.90
33645;DHT22;19986;48.190;16.366;2022-12-20T00:57:23;2.10;99.90
33645;DHT22;19986;48.190;16.366;2022-12-20T00:59:49;2.10;99.90
33645;DHT22;19986;48.190;16.366;2022-12-20T01:02:15;2.10;99.90
33645;DHT22;19986;48.190;16.366;2022-12-20T01:04:41;2.10;99.90
33645;DHT22;19986;48.190;16.366;2022-12-20T01:07:07;2.30;99.90
33645;DHT22;19986;48.190;16.366;2022-12-20T01:09:33;2.30;99.90
33645;DHT22;19986;48.190;16.366;2022-12-20T01:11:59;2.30;99.90
33645;DHT22;19986;48.190;16.366;2022-12-20T01:14:25;2.30;99.90
33645;DHT22;19986;48.190;16.366;2022-12-20T01:16:51;2.30;99.90
33645;DHT22;19986;48.190;16.366;2022-12-20T01:19:18;2.30;99.90
33645;DHT22;19986;48.190;16.366;2022-12-20T01:21:44;2.30;99.90
33645;DHT22;19986;48.190;16.366;2022-12-20T01:24:11;2.30;99.90
33645;DHT22;19986;48.190;16.366;2022-12-20T01:26:37;2.30;99.90
33645;DHT22;19986;48.190;16.366;2022-12-20T01:29:03;2.30;99.90
33645;DHT22;19986;48.190;16.366;2022-12-20T01:31:29;2.20;99.90
33645;DHT22;19986;48.190;16.366;2022-12-20T01:33:56;2.20;99.90
33645;DHT22;19986;48.190;16.366;2022-12-20T01:36:29;2.30;99.90
33645;DHT22;19986;48.190;16.366;2022-12-20T01:38:57;2.20;99.90
33645;DHT22;19986;48.190;16.366;2022-12-20T01:41:29;2.20;99.90
33645;DHT22;19986;48.190;16.366;2022-12-20T01:44:50;2.10;99.90
33645;DHT22;19986;48.190;16.366;2022-12-20T01:46:51;2.00;99.90
33645;DHT22;19986;48.190;16.366;2022-12-20T01:49:27;2.10;99.90
33645;DHT22;19986;48.190;16.366;2022-12-20T01:54:56;2.10;99.90
33645;DHT22;19986;48.190;16.366;2022-12-20T01:57:28;2.10;99.90
33645;DHT22;19986;48.190;16.366;2022-12-20T01:59:57;2.20;99.90
33645;DHT22;19986;48.190;16.366;2022-12-20T02:02:24;2.20;99.90
33645;DHT22;19986;48.190;16.366;2022-12-20T02:04:51;2.20;99.90
33645;DHT22;19986;48.190;16.366;2022-12-20T02:07:22;2.30;99.90
33645;DHT22;19986;48.190;16.366;2022-12-20T02:09:49;2.40;99.90
33645;DHT22;19986;48.190;16.366;2022-12-20T02:12:19;2.40;99.90
33645;DHT22;19986;48.190;16.366;2022-12-20T02:14:54;2.50;99.90
33645;DHT22;19986;48.190;16.366;2022-12-20T02:31:43;2.30;99.90
33645;DHT22;19986;48.190;16.366;2022-12-20T02:34:11;2.30;99.90
33645;DHT22;19986;48.190;16.366;2022-12-20T02:36:38;2.30;99.90
33645;DHT22;19986;48.190;16.366;2022-12-20T02:39:04;2.30;99.90
33645;DHT22;19986;48.190;16.366;2022-12-20T02:41:41;2.30;99.90
33645;DHT22;19986;48.190;16.366;2022-12-20T02:44:11;2.30;99.90
33645;DHT22;19986;48.190;16.366;2022-12-20T02:47:00;2.30;99.90
33645;DHT22;19986;48.190;16.366;2022-12-20T02:49:30;2.30;99.90
33645;DHT22;19986;48.190;16.366;2022-12-20T02:51:58;2.30;99.90
33645;DHT22;19986;48.190;16.366;2022-12-20T02:54:25;2.30;99.90
33645;DHT22;19986;48.190;16.366;2022-12-20T02:57:00;2.20;99.90
33645;DHT22;19986;48.190;16.366;2022-12-20T02:59:33;2.20;99.90
33645;DHT22;19986;48.190;16.366;2022-12-20T03:02:02;2.30;99.90
33645;DHT22;19986;48.190;16.366;2022-12-20T03:04:30;2.30;99.90
33645;DHT22;19986;48.190;16.366;2022-12-20T03:07:08;2.30;99.90
33645;DHT22;19986;48.190;16.366;2022-12-20T03:09:36;2.30;99.90
33645;DHT22;19986;48.190;16.366;2022-12-20T03:12:03;2.30;99.90
33645;DHT22;19986;48.190;16.366;2022-12-20T03:14:29;2.30;99.90
33645;DHT22;19986;48.190;16.366;2022-12-20T03:16:55;2.30;99.90
33645;DHT22;19986;48.190;16.366;2022-12-20T03:19:22;2.40;99.90
33645;DHT22;19986;48.190;16.366;2022-12-20T03:21:47;2.40;99.90
33645;DHT22;19986;48.190;16.366;2022-12-20T03:24:14;2.30;99.90
33645;DHT22;19986;48.190;16.366;2022-12-20T03:26:40;2.30;99.90
33645;DHT22;19986;48.190;16.366;2022-12-20T03:29:06;2.20;99.90
33645;DHT22;19986;48.190;16.366;2022-12-20T03:31:33;2.10;99.90
33645;DHT22;19986;48.190;16.366;2022-12-20T03:33:59;2.20;99.90
33645;DHT22;19986;48.190;16.366;2022-12-20T03:36:25;2.20;99.90
33645;DHT22;19986;48.190;16.366;2022-12-20T03:38:52;2.30;99.90
33645;DHT22;19986;48.190;16.366;2022-12-20T03:41:19;2.30;99.90
33645;DHT22;19986;48.190;16.366;2022-12-20T03:43:47;2.30;99.90
33645;DHT22;19986;48.190;16.366;2022-12-20T03:46:13;2.30;99.90
33645;DHT22;19986;48.190;16.366;2022-12-20T03:48:39;2.30;99.90
33645;DHT22;19986;48.190;16.366;2022-12-20T03:51:05;2.30;99.90
33645;DHT22;19986;48.190;16.366;2022-12-20T03:53:31;2.30;99.90
33645;DHT22;19986;48.190;16.366;2022-12-20T03:55:57;2.30;99.90
33645;DHT22;19986;48.190;16.366;2022-12-20T03:58:23;2.30;99.90
33645;DHT22;19986;48.190;16.366;2022-12-20T04:00:49;2.30;99.90
33645;DHT22;19986;48.190;16.366;2022-12-20T04:03:15;2.30;99.90
33645;DHT22;19986;48.190;16.366;2022-12-20T04:05:41;2.30;99.90
33645;DHT22;19986;48.190;16.366;2022-12-20T04:08:07;2.30;99.90
33645;DHT22;19986;48.190;16.366;2022-12-20T04:10:33;2.40;99.90
33645;DHT22;19986;48.190;16.366;2022-12-20T04:13:18;2.40;99.90
33645;DHT22;19986;48.190;16.366;2022-12-20T04:15:44;2.30;99.90
33645;DHT22;19986;48.190;16.366;2022-12-20T04:18:10;2.40;99.90
33645;DHT22;19986;48.190;16.366;2022-12-20T04:20:37;2.40;99.90
33645;DHT22;19986;48.190;16.366;2022-12-20T04:23:02;2.40;99.90
33645;DHT22;19986;48.190;16.366;2022-12-20T04:25:28;2.50;99.90
33645;DHT22;19986;48.190;16.366;2022-12-20T04:27:54;2.50;99.90
33645;DHT22;19986;48.190;16.366;2022-12-20T04:30:20;2.50;99.90
33645;DHT22;19986;48.190;16.366;2022-12-20T04:32:46;2.50;99.90
33645;DHT22;19986;48.190;16.366;2022-12-20T04:35:12;2.50;99.90
33645;DHT22;19986;48.190;16.366;2022-12-20T04:37:38;2.50;99.90
33645;DHT22;19986;48.190;16.366;2022-12-20T04:40:05;2.50;99.90
33645;DHT22;19986;48.190;16.366;2022-12-20T04:42:31;2.50;99.90
33645;DHT22;19986;48.190;16.366;2022-12-20T04:44:57;2.40;99.90
33645;DHT22;19986;48.190;16.366;2022-12-20T04:47:23;2.40;99.90
33645;DHT22;19986;48.190;16.366;2022-12-20T04:49:48;2.40;99.90
33645;DHT22;19986;48.190;16.366;2022-12-20T04:52:14;2.40;99.90
33645;DHT22;19986;48.190;16.366;2022-12-20T04:54:59;2.40;99.90
33645;DHT22;19986;48.190;16.366;2022-12-20T04:57:25;2.40;99.90
33645;DHT22;19986;48.190;16.366;2022-12-20T04:59:51;2.50;99.90
33645;DHT22;19986;48.190;16.366;2022-12-20T05:02:16;2.50;99.90
33645;DHT22;19986;48.190;16.366;2022-12-20T05:04:42;2.50;99.90
33645;DHT22;19986;48.190;16.366;2022-12-20T05:07:08;2.50;99.90
33645;DHT22;19986;48.190;16.366;2022-12-20T05:09:34;2.50;99.90
33645;DHT22;19986;48.190;16.366;2022-12-20T05:12:00;2.50;99.90
33645;DHT22;19986;48.190;16.366;2022-12-20T05:14:25;2.50;99.90
33645;DHT22;19986;48.190;16.366;2022-12-20T05:16:51;2.50;99.90
33645;DHT22;19986;48.190;16.366;2022-12-20T05:19:17;2.50;99.90
33645;DHT22;19986;48.190;16.366;2022-12-20T05:21:43;2.60;99.90
33645;DHT22;19986;48.190;16.366;2022-12-20T05:24:27;2.70;99.90
33645;DHT22;19986;48.190;16.366;2022-12-20T05:27:25;2.50;99.90
33645;DHT22;19986;48.190;16.366;2022-12-20T05:29:51;2.50;99.90
33645;DHT22;19986;48.190;16.366;2022-12-20T05:32:17;2.60;99.90
33645;DHT22;19986;48.190;16.366;2022-12-20T05:34:43;2.60;99.90
33645;DHT22;19986;48.190;16.366;2022-12-20T05:37:09;2.60;99.90
33645;DHT22;19986;48.190;16.366;2022-12-20T05:39:35;2.60;99.90
33645;DHT22;19986;48.190;16.366;2022-12-20T05:42:01;2.50;99.90
33645;DHT22;19986;48.190;16.366;2022-12-20T05:44:26;2.50;99.90
33645;DHT22;19986;48.190;16.366;2022-12-20T05:46:52;2.50;99.90
33645;DHT22;19986;48.190;16.366;2022-12-20T05:49:18;2.50;99.90
33645;DHT22;19986;48.190;16.366;2022-12-20T05:51:44;2.50;99.90
33645;DHT22;19986;48.190;16.366;2022-12-20T05:54:10;2.50;99.90
33645;DHT22;19986;48.190;16.366;2022-12-20T05:56:36;2.50;99.90
33645;DHT22;19986;48.190;16.366;2022-12-20T05:59:02;2.60;99.90
33645;DHT22;19986;48.190;16.366;2022-12-20T06:01:28;2.70;99.90
33645;DHT22;19986;48.190;16.366;2022-12-20T06:03:53;2.70;99.90
33645;DHT22;19986;48.190;16.366;2022-12-20T06:06:19;2.70;99.90
33645;DHT22;19986;48.190;16.366;2022-12-20T06:08:46;2.60;99.90
33645;DHT22;19986;48.190;16.366;2022-12-20T06:11:12;2.60;99.90
33645;DHT22;19986;48.190;16.366;2022-12-20T06:13:38;2.60;99.90
33645;DHT22;19986;48.190;16.366;2022-12-20T06:16:04;2.50;99.90
33645;DHT22;19986;48.190;16.366;2022-12-20T06:18:30;2.50;99.90
33645;DHT22;19986;48.190;16.366;2022-12-20T06:20:56;2.60;99.90
33645;DHT22;19986;48.190;16.366;2022-12-20T06:23:21;2.70;99.90
33645;DHT22;19986;48.190;16.366;2022-12-20T06:25:48;2.70;99.90
33645;DHT22;19986;48.190;16.366;2022-12-20T06:28:14;2.70;99.90
33645;DHT22;19986;48.190;16.366;2022-12-20T06:30:52;2.70;99.90
33645;DHT22;19986;48.190;16.366;2022-12-20T06:33:19;2.70;99.90
33645;DHT22;19986;48.190;16.366;2022-12-20T06:35:45;2.70;99.90
33645;DHT22;19986;48.190;16.366;2022-12-20T06:38:11;2.70;99.90
33645;DHT22;19986;48.190;16.366;2022-12-20T06:40:38;2.60;99.90
33645;DHT22;19986;48.190;16.366;2022-12-20T06:43:04;2.60;99.90
33645;DHT22;19986;48.190;16.366;2022-12-20T06:45:29;2.60;99.90
33645;DHT22;19986;48.190;16.366;2022-12-20T06:47:56;2.70;99.90
33645;DHT22;19986;48.190;16.366;2022-12-20T06:50:23;2.60;99.90
33645;DHT22;19986;48.190;16.366;2022-12-20T06:52:48;2.70;99.90
33645;DHT22;19986;48.190;16.366;2022-12-20T06:55:14;2.70;99.90
33645;DHT22;19986;48.190;16.366;2022-12-20T06:57:40;2.70;99.90
33645;DHT22;19986;48.190;16.366;2022-12-20T07:00:08;2.70;99.90
33645;DHT22;19986;48.190;16.366;2022-12-20T07:02:37;2.70;99.90
33645;DHT22;19986;48.190;16.366;2022-12-20T07:05:04;2.70;99.90
33645;DHT22;19986;48.190;16.366;2022-12-20T07:07:30;2.60;99.90
33645;DHT22;19986;48.190;16.366;2022-12-20T07:09:56;2.50;99.90
33645;DHT22;19986;48.190;16.366;2022-12-20T07:12:22;2.60;99.90
33645;DHT22;19986;48.190;16.366;2022-12-20T07:14:48;2.60;99.90
33645;DHT22;19986;48.190;16.366;2022-12-20T07:17:14;2.60;99.90
33645;DHT22;19986;48.190;16.366;2022-12-20T07:19:41;2.70;99.90
33645;DHT22;19986;48.190;16.366;2022-12-20T07:22:07;2.80;99.90
33645;DHT22;19986;48.190;16.366;2022-12-20T07:24:33;2.80;99.90
33645;DHT22;19986;48.190;16.366;2022-12-20T07:27:00;2.80;99.90
33645;DHT22;19986;48.190;16.366;2022-12-20T07:29:26;2.80;99.90
33645;DHT22;19986;48.190;16.366;2022-12-20T07:31:52;2.80;99.90
33645;DHT22;19986;48.190;16.366;2022-12-20T07:34:18;2.80;99.90
33645;DHT22;19986;48.190;16.366;2022-12-20T07:36:44;2.80;99.90
33645;DHT22;19986;48.190;16.366;2022-12-20T07:39:10;2.80;99.90
33645;DHT22;19986;48.190;16.366;2022-12-20T07:41:38;2.70;99.90
33645;DHT22;19986;48.190;16.366;2022-12-20T07:44:04;2.70;99.90
33645;DHT22;19986;48.190;16.366;2022-12-20T07:46:31;2.60;99.90
33645;DHT22;19986;48.190;16.366;2022-12-20T07:48:58;2.60;99.90
33645;DHT22;19986;48.190;16.366;2022-12-20T07:51:31;2.70;99.90
33645;DHT22;19986;48.190;16.366;2022-12-20T07:54:32;2.70;99.90
33645;DHT22;19986;48.190;16.366;2022-12-20T07:57:00;2.70;99.90
33645;DHT22;19986;48.190;16.366;2022-12-20T07:59:36;2.70;99.90
33645;DHT22;19986;48.190;16.366;2022-12-20T08:02:03;2.80;99.90
33645;DHT22;19986;48.190;16.366;2022-12-20T08:04:30;2.80;99.90
33645;DHT22;19986;48.190;16.366;2022-12-20T08:06:58;2.80;99.90
33645;DHT22;19986;48.190;16.366;2022-12-20T08:09:27;2.70;99.90
33645;DHT22;19986;48.190;16.366;2022-12-20T08:11:56;2.70;99.90
33645;DHT22;19986;48.190;16.366;2022-12-20T08:14:23;2.70;99.90
33645;DHT22;19986;48.190;16.366;2022-12-20T08:16:49;2.70;99.90
33645;DHT22;19986;48.190;16.366;2022-12-20T08:19:15;2.70;99.90
33645;DHT22;19986;48.190;16.366;2022-12-20T08:21:41;2.80;99.90
33645;DHT22;19986;48.190;16.366;2022-12-20T08:24:07;2.80;99.90
33645;DHT22;19986;48.190;16.366;2022-12-20T08:26:38;2.80;99.90
33645;DHT22;19986;48.190;16.366;2022-12-20T08:29:04;2.80;99.90
33645;DHT22;19986;48.190;16.366;2022-12-20T08:31:30;2.80;99.90
33645;DHT22;19986;48.190;16.366;2022-12-20T08:33:56;2.80;99.90
33645;DHT22;19986;48.190;16.366;2022-12-20T08:36:22;2.90;99.90
33645;DHT22;19986;48.190;16.366;2022-12-20T08:38:47;2.90;99.90
33645;DHT22;19986;48.190;16.366;2022-12-20T08:41:14;2.90;99.90
33645;DHT22;19986;48.190;16.366;2022-12-20T08:43:41;3.00;99.90
33645;DHT22;19986;48.190;16.366;2022-12-20T08:46:08;3.00;99.90
33645;DHT22;19986;48.190;16.366;2022-12-20T08:48:35;2.80;99.90
33645;DHT22;19986;48.190;16.366;2022-12-20T08:51:03;2.80;99.90
33645;DHT22;19986;48.190;16.366;2022-12-20T08:53:30;2.80;99.90
33645;DHT22;19986;48.190;16.366;2022-12-20T08:56:11;3.00;99.90
33645;DHT22;19986;48.190;16.366;2022-12-20T08:58:40;3.00;99.90
33645;DHT22;19986;48.190;16.366;2022-12-20T09:01:10;3.00;99.90
33645;DHT22;19986;48.190;16.366;2022-12-20T09:03:37;3.00;99.90
33645;DHT22;19986;48.190;16.366;2022-12-20T09:06:08;3.00;99.90
33645;DHT22;19986;48.190;16.366;2022-12-20T09:08:36;3.00;99.90
33645;DHT22;19986;48.190;16.366;2022-12-20T09:13:29;2.90;99.90
33645;DHT22;19986;48.190;16.366;2022-12-20T09:15:55;2.80;99.90
33645;DHT22;19986;48.190;16.366;2022-12-20T09:18:24;2.80;99.90
33645;DHT22;19986;48.190;16.366;2022-12-20T09:20:50;2.80;99.90
33645;DHT22;19986;48.190;16.366;2022-12-20T09:23:16;2.90;99.90
33645;DHT22;19986;48.190;16.366;2022-12-20T09:25:41;2.90;99.90
33645;DHT22;19986;48.190;16.366;2022-12-20T09:28:07;3.00;99.90
33645;DHT22;19986;48.190;16.366;2022-12-20T09:30:33;2.90;99.90
33645;DHT22;19986;48.190;16.366;2022-12-20T09:32:59;2.90;99.90
33645;DHT22;19986;48.190;16.366;2022-12-20T09:35:28;3.00;99.90
33645;DHT22;19986;48.190;16.366;2022-12-20T09:37:54;2.90;99.90
33645;DHT22;19986;48.190;16.366;2022-12-20T09:40:23;2.90;99.90
33645;DHT22;19986;48.190;16.366;2022-12-20T09:42:50;2.90;99.90
33645;DHT22;19986;48.190;16.366;2022-12-20T09:45:29;3.00;99.90
33645;DHT22;19986;48.190;16.366;2022-12-20T09:47:57;2.90;99.90
33645;DHT22;19986;48.190;16.366;2022-12-20T09:50:42;3.10;99.90
33645;DHT22;19986;48.190;16.366;2022-12-20T09:56:32;3.20;99.90
33645;DHT22;19986;48.190;16.366;2022-12-20T09:59:12;3.30;99.90
33645;DHT22;19986;48.190;16.366;2022-12-20T10:01:38;3.20;99.90
33645;DHT22;19986;48.190;16.366;2022-12-20T10:07:05;3.00;99.90
33645;DHT22;19986;48.190;16.366;2022-12-20T10:15:19;3.00;99.90
33645;DHT22;19986;48.190;16.366;2022-12-20T10:20:54;3.10;99.90
33645;DHT22;19986;48.190;16.366;2022-12-20T10:23:39;3.00;99.90
33645;DHT22;19986;48.190;16.366;2022-12-20T10:26:09;3.00;99.90
33645;DHT22;19986;48.190;16.366;2022-12-20T10:28:37;2.90;99.90
33645;DHT22;19986;48.190;16.366;2022-12-20T10:31:06;2.90;99.90
33645;DHT22;19986;48.190;16.366;2022-12-20T10:33:33;2.90;99.90
33645;DHT22;19986;48.190;16.366;2022-12-20T10:36:31;3.00;99.90
33645;DHT22;19986;48.190;16.366;2022-12-20T10:39:04;3.00;99.90
33645;DHT22;19986;48.190;16.366;2022-12-20T10:46:57;2.80;99.90
33645;DHT22;19986;48.190;16.366;2022-12-20T10:49:37;2.80;99.90
33645;DHT22;19986;48.190;16.366;2022-12-20T10:54:43;2.80;99.90
33645;DHT22;19986;48.190;16.366;2022-12-20T10:59:42;2.90;99.90
33645;DHT22;19986;48.190;16.366;2022-12-20T11:02:27;2.90;99.90
33645;DHT22;19986;48.190;16.366;2022-12-20T11:07:30;3.00;99.90
33645;DHT22;19986;48.190;16.366;2022-12-20T11:15:25;3.20;99.90
33645;DHT22;19986;48.190;16.366;2022-12-20T11:17:59;3.20;99.90
33645;DHT22;19986;48.190;16.366;2022-12-20T11:20:41;3.20;99.90
33645;DHT22;19986;48.190;16.366;2022-12-20T11:23:40;3.20;99.90
33645;DHT22;19986;48.190;16.366;2022-12-20T11:35:04;3.20;99.90
33645;DHT22;19986;48.190;16.366;2022-12-20T11:37:43;3.20;99.90
33645;DHT22;19986;48.190;16.366;2022-12-20T11:40:25;3.10;99.90
33645;DHT22;19986;48.190;16.366;2022-12-20T11:43:16;3.10;99.90
33645;DHT22;19986;48.190;16.366;2022-12-20T11:46:19;3.00;99.90
33645;DHT22;19986;48.190;16.366;2022-12-20T11:49:13;3.00;99.90
33645;DHT22;19986;48.190;16.366;2022-12-20T11:51:48;3.10;99.90
33645;DHT22;19986;48.190;16.366;2022-12-20T11:54:32;3.10;99.90
33645;DHT22;19986;48.190;16.366;2022-12-20T11:57:27;3.10;99.90
33645;DHT22;19986;48.190;16.366;2022-12-20T12:00:00;3.10;99.90
33645;DHT22;19986;48.190;16.366;2022-12-20T12:03:29;3.10;99.90
33645;DHT22;19986;48.190;16.366;2022-12-20T12:05:45;3.00;99.90
33645;DHT22;19986;48.190;16.366;2022-12-20T12:08:18;2.90;99.90
33645;DHT22;19986;48.190;16.366;2022-12-20T12:13:34;2.70;99.90
33645;DHT22;19986;48.190;16.366;2022-12-20T12:16:21;2.70;99.90
33645;DHT22;19986;48.190;16.366;2022-12-20T12:18:48;2.80;99.90
33645;DHT22;19986;48.190;16.366;2022-12-20T12:21:57;2.80;99.90
33645;DHT22;19986;48.190;16.366;2022-12-20T12:24:37;2.80;99.90
33645;DHT22;19986;48.190;16.366;2022-12-20T12:27:04;2.80;99.90
33645;DHT22;19986;48.190;16.366;2022-12-20T12:29:32;2.90;99.90
33645;DHT22;19986;48.190;16.366;2022-12-20T12:32:12;2.80;99.90
33645;DHT22;19986;48.190;16.366;2022-12-20T12:35:07;2.80;99.90
33645;DHT22;19986;48.190;16.366;2022-12-20T12:48:04;2.80;99.90
33645;DHT22;19986;48.190;16.366;2022-12-20T12:50:43;2.80;99.90
33645;DHT22;19986;48.190;16.366;2022-12-20T12:53:22;2.80;99.90
33645;DHT22;19986;48.190;16.366;2022-12-20T12:55:53;2.80;99.90
33645;DHT22;19986;48.190;16.366;2022-12-20T13:01:00;2.80;99.90
33645;DHT22;19986;48.190;16.366;2022-12-20T13:03:43;2.80;99.90
33645;DHT22;19986;48.190;16.366;2022-12-20T13:06:50;2.80;99.90
33645;DHT22;19986;48.190;16.366;2022-12-20T13:09:21;2.70;99.90
33645;DHT22;19986;48.190;16.366;2022-12-20T13:18:00;2.80;99.90
33645;DHT22;19986;48.190;16.366;2022-12-20T13:20:31;2.90;99.90
33645;DHT22;19986;48.190;16.366;2022-12-20T13:25:34;3.00;99.90
33645;DHT22;19986;48.190;16.366;2022-12-20T13:30:46;2.90;99.90
33645;DHT22;19986;48.190;16.366;2022-12-20T13:35:56;3.10;99.90
33645;DHT22;19986;48.190;16.366;2022-12-20T13:41:32;3.20;99.90
33645;DHT22;19986;48.190;16.366;2022-12-20T13:44:34;3.10;99.90
33645;DHT22;19986;48.190;16.366;2022-12-20T13:49:45;3.10;99.90
33645;DHT22;19986;48.190;16.366;2022-12-20T13:54:42;3.30;99.90
33645;DHT22;19986;48.190;16.366;2022-12-20T13:57:14;3.20;99.90
33645;DHT22;19986;48.190;16.366;2022-12-20T13:59:45;3.20;99.90
33645;DHT22;19986;48.190;16.366;2022-12-20T14:02:21;3.30;99.90
33645;DHT22;19986;48.190;16.366;2022-12-20T14:04:55;3.20;99.90
33645;DHT22;19986;48.190;16.366;2022-12-20T14:07:24;3.20;99.90
33645;DHT22;19986;48.190;16.366;2022-12-20T14:09:57;3.10;99.90
33645;DHT22;19986;48.190;16.366;2022-12-20T14:12:23;3.10;99.90
33645;DHT22;19986;48.190;16.366;2022-12-20T14:14:50;3.20;99.90
33645;DHT22;19986;48.190;16.366;2022-12-20T14:17:43;3.20;99.90
33645;DHT22;19986;48.190;16.366;2022-12-20T14:20:23;3.10;99.90
33645;DHT22;19986;48.190;16.366;2022-12-20T14:25:40;3.10;99.90
33645;DHT22;19986;48.190;16.366;2022-12-20T14:28:22;3.10;99.90
33645;DHT22;19986;48.190;16.366;2022-12-20T14:30:50;3.00;99.90
33645;DHT22;19986;48.190;16.366;2022-12-20T14:33:39;3.00;99.90
33645;DHT22;19986;48.190;16.366;2022-12-20T14:36:17;3.00;99.90
33645;DHT22;19986;48.190;16.366;2022-12-20T14:38:49;3.00;99.90
33645;DHT22;19986;48.190;16.366;2022-12-20T14:41:34;3.00;99.90
33645;DHT22;19986;48.190;16.366;2022-12-20T14:46:33;2.80;99.90
33645;DHT22;19986;48.190;16.366;2022-12-20T15:08:23;2.60;99.90
33645;DHT22;19986;48.190;16.366;2022-12-20T15:13:44;2.60;99.90
33645;DHT22;19986;48.190;16.366;2022-12-20T15:16:17;2.70;99.90
33645;DHT22;19986;48.190;16.366;2022-12-20T15:18:45;2.80;99.90
33645;DHT22;19986;48.190;16.366;2022-12-20T15:24:13;2.80;99.90
33645;DHT22;19986;48.190;16.366;2022-12-20T15:26:40;2.70;99.90
33645;DHT22;19986;48.190;16.366;2022-12-20T15:29:06;2.70;99.90
33645;DHT22;19986;48.190;16.366;2022-12-20T15:31:34;2.80;99.90
33645;DHT22;19986;48.190;16.366;2022-12-20T15:34:03;2.90;99.90
33645;DHT22;19986;48.190;16.366;2022-12-20T15:36:36;2.90;99.90
33645;DHT22;19986;48.190;16.366;2022-12-20T15:39:04;3.00;99.90
33645;DHT22;19986;48.190;16.366;2022-12-20T15:41:32;3.00;99.90
33645;DHT22;19986;48.190;16.366;2022-12-20T15:44:04;3.00;99.90
33645;DHT22;19986;48.190;16.366;2022-12-20T15:46:30;3.10;99.90
33645;DHT22;19986;48.190;16.366;2022-12-20T15:48:57;3.10;99.90
33645;DHT22;19986;48.190;16.366;2022-12-20T15:51:29;3.00;99.90
33645;DHT22;19986;48.190;16.366;2022-12-20T15:53:57;2.90;99.90
33645;DHT22;19986;48.190;16.366;2022-12-20T15:56:25;2.90;99.90
33645;DHT22;19986;48.190;16.366;2022-12-20T15:58:51;2.90;99.90
33645;DHT22;19986;48.190;16.366;2022-12-20T16:01:24;2.90;99.90
33645;DHT22;19986;48.190;16.366;2022-12-20T16:03:51;3.00;99.90
33645;DHT22;19986;48.190;16.366;2022-12-20T16:06:18;3.00;99.90
33645;DHT22;19986;48.190;16.366;2022-12-20T16:08:45;2.90;99.90
33645;DHT22;19986;48.190;16.366;2022-12-20T16:11:27;2.90;99.90
33645;DHT22;19986;48.190;16.366;2022-12-20T16:13:54;2.80;99.90
33645;DHT22;19986;48.190;16.366;2022-12-20T16:16:22;2.90;99.90
33645;DHT22;19986;48.190;16.366;2022-12-20T16:18:48;3.00;99.90
33645;DHT22;19986;48.190;16.366;2022-12-20T16:21:17;3.00;99.90
33645;DHT22;19986;48.190;16.366;2022-12-20T16:23:44;3.00;99.90
33645;DHT22;19986;48.190;16.366;2022-12-20T16:26:14;3.00;99.90
33645;DHT22;19986;48.190;16.366;2022-12-20T16:28:41;3.00;99.90
33645;DHT22;19986;48.190;16.366;2022-12-20T16:31:32;2.90;99.90
33645;DHT22;19986;48.190;16.366;2022-12-20T16:34:00;3.00;99.90
33645;DHT22;19986;48.190;16.366;2022-12-20T16:36:28;3.00;99.90
33645;DHT22;19986;48.190;16.366;2022-12-20T16:38:54;3.00;99.90
33645;DHT22;19986;48.190;16.366;2022-12-20T16:41:23;3.00;99.90
33645;DHT22;19986;48.190;16.366;2022-12-20T16:43:50;3.00;99.90
33645;DHT22;19986;48.190;16.366;2022-12-20T16:46:18;3.00;99.90
33645;DHT22;19986;48.190;16.366;2022-12-20T16:48:45;3.00;99.90
33645;DHT22;19986;48.190;16.366;2022-12-20T16:53:54;3.10;99.90
33645;DHT22;19986;48.190;16.366;2022-12-20T16:56:21;3.10;99.90
33645;DHT22;19986;48.190;16.366;2022-12-20T16:58:47;3.00;99.90
33645;DHT22;19986;48.190;16.366;2022-12-20T17:01:18;3.00;99.90
33645;DHT22;19986;48.190;16.366;2022-12-20T17:03:45;3.00;99.90
33645;DHT22;19986;48.190;16.366;2022-12-20T17:06:13;3.00;99.90
33645;DHT22;19986;48.190;16.366;2022-12-20T17:08:39;3.00;99.90
33645;DHT22;19986;48.190;16.366;2022-12-20T17:11:25;3.00;99.90
33645;DHT22;19986;48.190;16.366;2022-12-20T17:13:54;2.90;99.90
33645;DHT22;19986;48.190;16.366;2022-12-20T17:16:20;2.90;99.90
33645;DHT22;19986;48.190;16.366;2022-12-20T17:18:48;2.80;99.90
33645;DHT22;19986;48.190;16.366;2022-12-20T17:23:44;2.80;99.90
33645;DHT22;19986;48.190;16.366;2022-12-20T17:26:14;2.80;99.90
33645;DHT22;19986;48.190;16.366;2022-12-20T17:28:41;2.80;99.90
33645;DHT22;19986;48.190;16.366;2022-12-20T17:31:32;2.80;99.90
33645;DHT22;19986;48.190;16.366;2022-12-20T17:34:12;2.90;99.90
33645;DHT22;19986;48.190;16.366;2022-12-20T17:36:40;3.00;99.90
33645;DHT22;19986;48.190;16.366;2022-12-20T17:39:06;3.10;99.90
33645;DHT22;19986;48.190;16.366;2022-12-20T17:41:33;3.10;99.90
33645;DHT22;19986;48.190;16.366;2022-12-20T17:44:02;3.00;99.90
33645;DHT22;19986;48.190;16.366;2022-12-20T17:46:28;3.00;99.90
33645;DHT22;19986;48.190;16.366;2022-12-20T17:48:54;3.00;99.90
33645;DHT22;19986;48.190;16.366;2022-12-20T17:51:27;3.10;99.90
33645;DHT22;19986;48.190;16.366;2022-12-20T17:53:58;3.20;99.90
33645;DHT22;19986;48.190;16.366;2022-12-20T17:56:27;3.20;99.90
33645;DHT22;19986;48.190;16.366;2022-12-20T17:58:54;3.10;99.90
33645;DHT22;19986;48.190;16.366;2022-12-20T18:01:23;3.10;99.90
33645;DHT22;19986;48.190;16.366;2022-12-20T18:03:51;3.20;99.90
33645;DHT22;19986;48.190;16.366;2022-12-20T18:06:18;3.20;99.90